sensor_id;sensor_type;location;lat;lon;timestamp;temperature;humidity
7708;DHT22;3896;48.758;8.888;2023-07-29T00:01:05;18.40;99.90
7708;DHT22;3896;48.758;8.888;2023-07-29T00:03:31;18.40;99.90
7708;DHT22;3896;48.758;8.888;2023-07-29T00:05:57;18.40;99.90
7708;DHT22;3896;48.758;8.888;2023-07-29T00:08:23;18.40;99.90
7708;DHT22;3896;48.758;8.888;2023-07-29T00:10:48;18.40;99.90
7708;DHT22;3896;48.758;8.888;2023-07-29T00:13:14;18.40;99.90
7708;DHT22;3896;48.758;8.888;2023-07-29T00:15:39;18.30;99.90
7708;DHT22;3896;48.758;8.888;2023-07-29T00:18:05;18.30;99.90
7708;DHT22;3896;48.758;8.888;2023-07-29T00:20:31;18.30;99.90
7708;DHT22;3896;48.758;8.888;2023-07-29T00:22:56;18.30;99.90
7708;DHT22;3896;48.758;8.888;2023-07-29T00:25:23;18.30;99.90
7708;DHT22;3896;48.758;8.888;2023-07-29T00:27:49;18.30;99.90
7708;DHT22;3896;48.758;8.888;2023-07-29T00:30:14;18.30;99.90
7708;DHT22;3896;48.758;8.888;2023-07-29T00:32:40;18.40;99.90
7708;DHT22;3896;48.758;8.888;2023-07-29T00:35:06;18.40;99.90
7708;DHT22;3896;48.758;8.888;2023-07-29T00:37:32;18.30;99.90
7708;DHT22;3896;48.758;8.888;2023-07-29T00:39:57;18.40;99.90
7708;DHT22;3896;48.758;8.888;2023-07-29T00:42:24;18.40;99.90
7708;DHT22;3896;48.758;8.888;2023-07-29T00:44:49;18.40;99.90
7708;DHT22;3896;48.758;8.888;2023-07-29T00:47:16;18.40;99.90
7708;DHT22;3896;48.758;8.888;2023-07-29T00:49:44;18.40;99.90
7708;DHT22;3896;48.758;8.888;2023-07-29T00:52:11;18.40;99.90
7708;DHT22;3896;48.758;8.888;2023-07-29T00:54:39;18.40;99.90
7708;DHT22;3896;48.758;8.888;2023-07-29T00:57:05;18.40;99.90
7708;DHT22;3896;48.758;8.888;2023-07-29T00:59:31;18.40;99.90
7708;DHT22;3896;48.758;8.888;2023-07-29T01:01:57;18.40;99.90
7708;DHT22;3896;48.758;8.888;2023-07-29T01:04:23;18.40;99.90
7708;DHT22;3896;48.758;8.888;2023-07-29T01:07:35;18.40;99.90
7708;DHT22;3896;48.758;8.888;2023-07-29T01:10:03;18.30;99.90
7708;DHT22;3896;48.758;8.888;2023-07-29T01:15:50;18.30;99.90
7708;DHT22;3896;48.758;8.888;2023-07-29T01:18:30;18.30;99.90
7708;DHT22;3896;48.758;8.888;2023-07-29T01:20:59;18.30;99.90
7708;DHT22;3896;48.758;8.888;2023-07-29T01:23:31;18.30;99.90
7708;DHT22;3896;48.758;8.888;2023-07-29T01:25:57;18.30;99.90
7708;DHT22;3896;48.758;8.888;2023-07-29T01:28:23;18.30;99.90
7708;DHT22;3896;48.758;8.888;2023-07-29T01:30:52;18.30;99.90
7708;DHT22;3896;48.758;8.888;2023-07-29T01:33:35;18.30;99.90
7708;DHT22;3896;48.758;8.888;2023-07-29T01:36:18;18.30;99.90
7708;DHT22;3896;48.758;8.888;2023-07-29T01:38:46;18.30;99.90
7708;DHT22;3896;48.758;8.888;2023-07-29T01:41:13;18.30;99.90
7708;DHT22;3896;48.758;8.888;2023-07-29T01:43:39;18.30;99.90
7708;DHT22;3896;48.758;8.888;2023-07-29T01:46:13;18.30;99.90
7708;DHT22;3896;48.758;8.888;2023-07-29T01:48:39;18.30;99.90
7708;DHT22;3896;48.758;8.888;2023-07-29T01:51:05;18.40;99.90
7708;DHT22;3896;48.758;8.888;2023-07-29T01:53:31;18.30;99.90
7708;DHT22;3896;48.758;8.888;2023-07-29T01:55:57;18.30;99.90
7708;DHT22;3896;48.758;8.888;2023-07-29T01:58:23;18.30;99.90
7708;DHT22;3896;48.758;8.888;2023-07-29T02:00:49;18.30;99.90
7708;DHT22;3896;48.758;8.888;2023-07-29T02:03:14;18.30;99.90
7708;DHT22;3896;48.758;8.888;2023-07-29T02:05:40;18.30;99.90
7708;DHT22;3896;48.758;8.888;2023-07-29T02:08:05;18.30;99.90
7708;DHT22;3896;48.758;8.888;2023-07-29T02:10:31;18.30;99.90
7708;DHT22;3896;48.758;8.888;2023-07-29T02:12:56;18.30;99.90
7708;DHT22;3896;48.758;8.888;2023-07-29T02:15:22;18.20;99.90
7708;DHT22;3896;48.758;8.888;2023-07-29T02:17:50;18.30;99.90
7708;DHT22;3896;48.758;8.888;2023-07-29T02:20:16;18.20;99.90
7708;DHT22;3896;48.758;8.888;2023-07-29T02:22:41;18.20;99.90
7708;DHT22;3896;48.758;8.888;2023-07-29T02:25:07;18.20;99.90
7708;DHT22;3896;48.758;8.888;2023-07-29T02:27:33;18.20;99.90
7708;DHT22;3896;48.758;8.888;2023-07-29T02:29:58;18.20;99.90
7708;DHT22;3896;48.758;8.888;2023-07-29T02:32:24;18.20;99.90
7708;DHT22;3896;48.758;8.888;2023-07-29T02:34:49;18.20;99.90
7708;DHT22;3896;48.758;8.888;2023-07-29T02:37:15;18.20;99.90
7708;DHT22;3896;48.758;8.888;2023-07-29T02:39:41;18.20;99.90
7708;DHT22;3896;48.758;8.888;2023-07-29T02:42:06;18.20;99.90
7708;DHT22;3896;48.758;8.888;2023-07-29T02:44:32;18.10;99.90
7708;DHT22;3896;48.758;8.888;2023-07-29T02:46:57;18.20;99.90
7708;DHT22;3896;48.758;8.888;2023-07-29T02:49:23;18.20;99.90
7708;DHT22;3896;48.758;8.888;2023-07-29T02:51:49;18.20;99.90
7708;DHT22;3896;48.758;8.888;2023-07-29T02:54:14;18.20;99.90
7708;DHT22;3896;48.758;8.888;2023-07-29T02:56:40;18.20;99.90
7708;DHT22;3896;48.758;8.888;2023-07-29T02:59:05;18.20;99.90
7708;DHT22;3896;48.758;8.888;2023-07-29T03:01:31;18.20;99.90
7708;DHT22;3896;48.758;8.888;2023-07-29T03:03:57;18.20;99.90
7708;DHT22;3896;48.758;8.888;2023-07-29T03:06:23;18.20;99.90
7708;DHT22;3896;48.758;8.888;2023-07-29T03:08:49;18.20;99.90
7708;DHT22;3896;48.758;8.888;2023-07-29T03:11:16;18.20;99.90
7708;DHT22;3896;48.758;8.888;2023-07-29T03:13:42;18.20;99.90
7708;DHT22;3896;48.758;8.888;2023-07-29T03:16:10;18.20;99.90
7708;DHT22;3896;48.758;8.888;2023-07-29T03:18:36;18.20;99.90
7708;DHT22;3896;48.758;8.888;2023-07-29T03:21:02;18.20;99.90
7708;DHT22;3896;48.758;8.888;2023-07-29T03:23:30;18.10;99.90
7708;DHT22;3896;48.758;8.888;2023-07-29T03:25:56;18.10;99.90
7708;DHT22;3896;48.758;8.888;2023-07-29T03:28:25;18.10;99.90
7708;DHT22;3896;48.758;8.888;2023-07-29T03:30:50;18.10;99.90
7708;DHT22;3896;48.758;8.888;2023-07-29T03:33:16;18.10;99.90
7708;DHT22;3896;48.758;8.888;2023-07-29T03:35:41;18.10;99.90
7708;DHT22;3896;48.758;8.888;2023-07-29T03:38:10;18.10;99.90
7708;DHT22;3896;48.758;8.888;2023-07-29T03:40:37;18.10;99.90
7708;DHT22;3896;48.758;8.888;2023-07-29T03:43:02;18.10;99.90
7708;DHT22;3896;48.758;8.888;2023-07-29T03:45:28;18.10;99.90
7708;DHT22;3896;48.758;8.888;2023-07-29T03:47:53;18.20;99.90
7708;DHT22;3896;48.758;8.888;2023-07-29T03:50:19;18.20;99.90
7708;DHT22;3896;48.758;8.888;2023-07-29T03:52:44;18.20;99.90
7708;DHT22;3896;48.758;8.888;2023-07-29T03:55:10;18.20;99.90
7708;DHT22;3896;48.758;8.888;2023-07-29T03:57:35;18.20;99.90
7708;DHT22;3896;48.758;8.888;2023-07-29T04:00:01;18.20;99.90
7708;DHT22;3896;48.758;8.888;2023-07-29T04:02:27;18.20;99.90
7708;DHT22;3896;48.758;8.888;2023-07-29T04:04:52;18.20;99.90
7708;DHT22;3896;48.758;8.888;2023-07-29T04:07:18;18.20;99.90
7708;DHT22;3896;48.758;8.888;2023-07-29T04:09:43;18.20;99.90
7708;DHT22;3896;48.758;8.888;2023-07-29T04:12:09;18.20;99.90
7708;DHT22;3896;48.758;8.888;2023-07-29T04:14:35;18.20;99.90
7708;DHT22;3896;48.758;8.888;2023-07-29T04:17:00;18.20;99.90
7708;DHT22;3896;48.758;8.888;2023-07-29T04:19:26;18.20;99.90
7708;DHT22;3896;48.758;8.888;2023-07-29T04:21:52;18.20;99.90
7708;DHT22;3896;48.758;8.888;2023-07-29T04:24:17;18.20;99.90
7708;DHT22;3896;48.758;8.888;2023-07-29T04:26:45;18.20;99.90
7708;DHT22;3896;48.758;8.888;2023-07-29T04:29:11;18.20;99.90
7708;DHT22;3896;48.758;8.888;2023-07-29T04:31:37;18.20;99.90
7708;DHT22;3896;48.758;8.888;2023-07-29T04:34:04;18.20;99.90
7708;DHT22;3896;48.758;8.888;2023-07-29T04:36:29;18.10;99.90
7708;DHT22;3896;48.758;8.888;2023-07-29T04:38:55;18.10;99.90
7708;DHT22;3896;48.758;8.888;2023-07-29T04:41:20;18.10;99.90
7708;DHT22;3896;48.758;8.888;2023-07-29T04:43:46;18.10;99.90
7708;DHT22;3896;48.758;8.888;2023-07-29T04:46:12;18.10;99.90
7708;DHT22;3896;48.758;8.888;2023-07-29T04:48:37;18.10;99.90
7708;DHT22;3896;48.758;8.888;2023-07-29T04:51:03;18.10;99.90
7708;DHT22;3896;48.758;8.888;2023-07-29T04:53:29;18.10;99.90
7708;DHT22;3896;48.758;8.888;2023-07-29T04:55:54;18.10;99.90
7708;DHT22;3896;48.758;8.888;2023-07-29T04:58:20;18.20;99.90
7708;DHT22;3896;48.758;8.888;2023-07-29T05:00:47;18.20;99.90
7708;DHT22;3896;48.758;8.888;2023-07-29T05:03:12;18.10;99.90
7708;DHT22;3896;48.758;8.888;2023-07-29T05:05:38;18.10;99.90
7708;DHT22;3896;48.758;8.888;2023-07-29T05:08:03;18.10;99.90
7708;DHT22;3896;48.758;8.888;2023-07-29T05:10:29;18.10;99.90
7708;DHT22;3896;48.758;8.888;2023-07-29T05:12:55;18.20;99.90
7708;DHT22;3896;48.758;8.888;2023-07-29T05:15:20;18.20;99.90
7708;DHT22;3896;48.758;8.888;2023-07-29T05:17:46;18.20;99.90
7708;DHT22;3896;48.758;8.888;2023-07-29T05:20:11;18.20;99.90
7708;DHT22;3896;48.758;8.888;2023-07-29T05:22:37;18.20;99.90
7708;DHT22;3896;48.758;8.888;2023-07-29T05:25:03;18.20;99.90
7708;DHT22;3896;48.758;8.888;2023-07-29T05:27:28;18.20;99.90
7708;DHT22;3896;48.758;8.888;2023-07-29T05:29:54;18.20;99.90
7708;DHT22;3896;48.758;8.888;2023-07-29T05:32:19;18.30;99.90
7708;DHT22;3896;48.758;8.888;2023-07-29T05:34:45;18.30;99.90
7708;DHT22;3896;48.758;8.888;2023-07-29T05:37:10;18.30;99.90
7708;DHT22;3896;48.758;8.888;2023-07-29T05:39:36;18.30;99.90
7708;DHT22;3896;48.758;8.888;2023-07-29T05:42:03;18.40;99.90
7708;DHT22;3896;48.758;8.888;2023-07-29T05:44:29;18.40;99.90
7708;DHT22;3896;48.758;8.888;2023-07-29T05:46:57;18.40;99.90
7708;DHT22;3896;48.758;8.888;2023-07-29T05:49:23;18.40;99.90
7708;DHT22;3896;48.758;8.888;2023-07-29T05:51:48;18.40;99.90
7708;DHT22;3896;48.758;8.888;2023-07-29T05:54:17;18.50;99.90
7708;DHT22;3896;48.758;8.888;2023-07-29T05:56:42;18.50;99.90
7708;DHT22;3896;48.758;8.888;2023-07-29T05:59:08;18.60;99.90
7708;DHT22;3896;48.758;8.888;2023-07-29T06:01:33;18.60;99.90
7708;DHT22;3896;48.758;8.888;2023-07-29T06:04:00;18.60;99.90
7708;DHT22;3896;48.758;8.888;2023-07-29T06:06:26;18.60;99.90
7708;DHT22;3896;48.758;8.888;2023-07-29T06:08:51;18.70;99.90
7708;DHT22;3896;48.758;8.888;2023-07-29T06:11:17;18.70;99.90
7708;DHT22;3896;48.758;8.888;2023-07-29T06:13:42;18.70;99.90
7708;DHT22;3896;48.758;8.888;2023-07-29T06:16:08;18.80;99.90
7708;DHT22;3896;48.758;8.888;2023-07-29T06:18:33;18.80;99.90
7708;DHT22;3896;48.758;8.888;2023-07-29T06:20:59;18.90;99.90
7708;DHT22;3896;48.758;8.888;2023-07-29T06:23:24;18.90;99.90
7708;DHT22;3896;48.758;8.888;2023-07-29T06:25:51;18.90;99.90
7708;DHT22;3896;48.758;8.888;2023-07-29T06:28:17;19.00;99.90
7708;DHT22;3896;48.758;8.888;2023-07-29T06:30:42;19.00;99.90
7708;DHT22;3896;48.758;8.888;2023-07-29T06:33:08;19.00;99.90
7708;DHT22;3896;48.758;8.888;2023-07-29T06:35:34;19.10;99.90
7708;DHT22;3896;48.758;8.888;2023-07-29T06:37:59;19.10;99.90
7708;DHT22;3896;48.758;8.888;2023-07-29T06:40:25;19.20;99.90
7708;DHT22;3896;48.758;8.888;2023-07-29T06:42:50;19.20;99.90
7708;DHT22;3896;48.758;8.888;2023-07-29T06:45:16;19.20;99.90
7708;DHT22;3896;48.758;8.888;2023-07-29T06:47:41;19.20;99.90
7708;DHT22;3896;48.758;8.888;2023-07-29T06:50:07;19.30;99.90
7708;DHT22;3896;48.758;8.888;2023-07-29T06:52:33;19.30;99.90
7708;DHT22;3896;48.758;8.888;2023-07-29T06:54:58;19.30;99.90
7708;DHT22;3896;48.758;8.888;2023-07-29T06:57:24;19.40;99.90
7708;DHT22;3896;48.758;8.888;2023-07-29T06:59:49;19.40;99.90
7708;DHT22;3896;48.758;8.888;2023-07-29T07:02:15;19.40;99.90
7708;DHT22;3896;48.758;8.888;2023-07-29T07:04:41;19.40;99.90
7708;DHT22;3896;48.758;8.888;2023-07-29T07:07:06;19.40;99.90
7708;DHT22;3896;48.758;8.888;2023-07-29T07:09:32;19.40;99.90
7708;DHT22;3896;48.758;8.888;2023-07-29T07:11:57;19.50;99.90
7708;DHT22;3896;48.758;8.888;2023-07-29T07:14:23;19.50;99.90
7708;DHT22;3896;48.758;8.888;2023-07-29T07:16:48;19.50;99.90
7708;DHT22;3896;48.758;8.888;2023-07-29T07:19:14;19.50;99.90
7708;DHT22;3896;48.758;8.888;2023-07-29T07:21:40;19.60;99.90
7708;DHT22;3896;48.758;8.888;2023-07-29T07:24:05;19.50;99.90
7708;DHT22;3896;48.758;8.888;2023-07-29T07:26:31;19.60;99.90
7708;DHT22;3896;48.758;8.888;2023-07-29T07:28:57;19.60;99.90
7708;DHT22;3896;48.758;8.888;2023-07-29T07:31:22;19.60;99.90
7708;DHT22;3896;48.758;8.888;2023-07-29T07:33:48;19.70;99.90
7708;DHT22;3896;48.758;8.888;2023-07-29T07:36:14;19.70;99.90
7708;DHT22;3896;48.758;8.888;2023-07-29T07:38:41;19.70;99.90
7708;DHT22;3896;48.758;8.888;2023-07-29T07:41:06;19.80;99.90
7708;DHT22;3896;48.758;8.888;2023-07-29T07:43:32;19.80;99.90
7708;DHT22;3896;48.758;8.888;2023-07-29T07:45:59;19.90;99.90
7708;DHT22;3896;48.758;8.888;2023-07-29T07:48:25;19.90;99.90
7708;DHT22;3896;48.758;8.888;2023-07-29T07:50:51;19.90;99.90
7708;DHT22;3896;48.758;8.888;2023-07-29T07:53:16;20.00;99.90
7708;DHT22;3896;48.758;8.888;2023-07-29T07:55:42;20.10;99.90
7708;DHT22;3896;48.758;8.888;2023-07-29T07:58:07;20.20;99.90
7708;DHT22;3896;48.758;8.888;2023-07-29T08:00:33;20.30;99.90
7708;DHT22;3896;48.758;8.888;2023-07-29T08:02:58;20.40;99.90
7708;DHT22;3896;48.758;8.888;2023-07-29T08:05:24;20.50;99.90
7708;DHT22;3896;48.758;8.888;2023-07-29T08:07:49;20.50;99.90
7708;DHT22;3896;48.758;8.888;2023-07-29T08:10:15;20.60;99.90
7708;DHT22;3896;48.758;8.888;2023-07-29T08:12:41;20.70;99.90
7708;DHT22;3896;48.758;8.888;2023-07-29T08:15:06;20.80;99.90
7708;DHT22;3896;48.758;8.888;2023-07-29T08:17:32;20.80;99.90
7708;DHT22;3896;48.758;8.888;2023-07-29T08:19:57;20.90;99.90
7708;DHT22;3896;48.758;8.888;2023-07-29T08:22:23;21.00;99.90
7708;DHT22;3896;48.758;8.888;2023-07-29T08:24:49;21.00;99.90
7708;DHT22;3896;48.758;8.888;2023-07-29T08:27:14;21.00;99.90
7708;DHT22;3896;48.758;8.888;2023-07-29T08:29:40;21.10;99.90
7708;DHT22;3896;48.758;8.888;2023-07-29T08:32:05;21.20;99.90
7708;DHT22;3896;48.758;8.888;2023-07-29T08:34:31;21.20;99.90
7708;DHT22;3896;48.758;8.888;2023-07-29T08:36:57;21.30;99.90
7708;DHT22;3896;48.758;8.888;2023-07-29T08:39:23;21.40;99.90
7708;DHT22;3896;48.758;8.888;2023-07-29T08:42:03;21.50;99.90
7708;DHT22;3896;48.758;8.888;2023-07-29T08:44:42;21.50;99.90
7708;DHT22;3896;48.758;8.888;2023-07-29T08:47:09;21.60;99.90
7708;DHT22;3896;48.758;8.888;2023-07-29T08:49:36;21.70;99.90
7708;DHT22;3896;48.758;8.888;2023-07-29T08:52:02;21.80;99.90
7708;DHT22;3896;48.758;8.888;2023-07-29T08:54:29;21.90;99.90
7708;DHT22;3896;48.758;8.888;2023-07-29T08:56:54;22.00;99.90
7708;DHT22;3896;48.758;8.888;2023-07-29T08:59:20;22.10;99.90
7708;DHT22;3896;48.758;8.888;2023-07-29T09:01:47;22.20;99.90
7708;DHT22;3896;48.758;8.888;2023-07-29T09:04:13;22.30;99.90
7708;DHT22;3896;48.758;8.888;2023-07-29T09:06:39;22.50;99.90
7708;DHT22;3896;48.758;8.888;2023-07-29T09:09:08;22.50;99.90
7708;DHT22;3896;48.758;8.888;2023-07-29T09:11:34;22.60;99.90
7708;DHT22;3896;48.758;8.888;2023-07-29T09:13:59;22.70;99.90
7708;DHT22;3896;48.758;8.888;2023-07-29T09:16:25;22.80;99.90
7708;DHT22;3896;48.758;8.888;2023-07-29T09:18:51;22.90;99.90
7708;DHT22;3896;48.758;8.888;2023-07-29T09:21:22;23.00;99.90
7708;DHT22;3896;48.758;8.888;2023-07-29T09:23:50;23.10;99.90
7708;DHT22;3896;48.758;8.888;2023-07-29T09:26:22;23.10;99.90
7708;DHT22;3896;48.758;8.888;2023-07-29T09:28:52;23.20;99.90
7708;DHT22;3896;48.758;8.888;2023-07-29T09:31:20;23.30;99.90
7708;DHT22;3896;48.758;8.888;2023-07-29T09:33:46;23.40;99.90
7708;DHT22;3896;48.758;8.888;2023-07-29T09:36:11;23.50;99.90
7708;DHT22;3896;48.758;8.888;2023-07-29T09:38:37;23.60;99.90
7708;DHT22;3896;48.758;8.888;2023-07-29T09:41:03;23.70;99.90
7708;DHT22;3896;48.758;8.888;2023-07-29T09:43:33;23.70;99.90
7708;DHT22;3896;48.758;8.888;2023-07-29T09:46:00;23.80;99.90
7708;DHT22;3896;48.758;8.888;2023-07-29T09:48:27;23.90;99.90
7708;DHT22;3896;48.758;8.888;2023-07-29T09:50:54;23.90;99.90
7708;DHT22;3896;48.758;8.888;2023-07-29T09:53:20;24.00;99.90
7708;DHT22;3896;48.758;8.888;2023-07-29T09:55:47;24.10;99.90
7708;DHT22;3896;48.758;8.888;2023-07-29T09:58:27;24.20;99.90
7708;DHT22;3896;48.758;8.888;2023-07-29T10:00:53;24.30;99.90
7708;DHT22;3896;48.758;8.888;2023-07-29T10:03:21;24.30;99.90
7708;DHT22;3896;48.758;8.888;2023-07-29T10:05:46;24.40;99.90
7708;DHT22;3896;48.758;8.888;2023-07-29T10:08:13;24.40;99.90
7708;DHT22;3896;48.758;8.888;2023-07-29T10:10:39;24.50;99.90
7708;DHT22;3896;48.758;8.888;2023-07-29T10:13:06;24.50;99.90
7708;DHT22;3896;48.758;8.888;2023-07-29T10:15:32;24.50;99.90
7708;DHT22;3896;48.758;8.888;2023-07-29T10:17:59;24.50;99.90
7708;DHT22;3896;48.758;8.888;2023-07-29T10:20:25;24.60;99.90
7708;DHT22;3896;48.758;8.888;2023-07-29T10:22:51;24.60;99.90
7708;DHT22;3896;48.758;8.888;2023-07-29T10:25:22;24.60;99.90
7708;DHT22;3896;48.758;8.888;2023-07-29T10:27:53;24.60;99.90
7708;DHT22;3896;48.758;8.888;2023-07-29T10:30:21;24.60;99.90
7708;DHT22;3896;48.758;8.888;2023-07-29T10:32:47;24.60;99.90
7708;DHT22;3896;48.758;8.888;2023-07-29T10:35:14;24.60;99.90
7708;DHT22;3896;48.758;8.888;2023-07-29T10:37:41;24.60;99.90
7708;DHT22;3896;48.758;8.888;2023-07-29T10:40:08;24.60;99.90
7708;DHT22;3896;48.758;8.888;2023-07-29T10:42:34;24.70;99.90
7708;DHT22;3896;48.758;8.888;2023-07-29T10:45:00;24.80;99.90
7708;DHT22;3896;48.758;8.888;2023-07-29T10:47:27;24.90;99.90
7708;DHT22;3896;48.758;8.888;2023-07-29T10:49:58;25.00;99.90
7708;DHT22;3896;48.758;8.888;2023-07-29T10:52:51;25.00;99.90
7708;DHT22;3896;48.758;8.888;2023-07-29T10:55:33;25.00;99.90
7708;DHT22;3896;48.758;8.888;2023-07-29T10:58:12;25.20;99.90
7708;DHT22;3896;48.758;8.888;2023-07-29T11:00:39;25.30;99.90
7708;DHT22;3896;48.758;8.888;2023-07-29T11:03:07;25.40;99.90
7708;DHT22;3896;48.758;8.888;2023-07-29T11:05:52;25.50;99.40
7708;DHT22;3896;48.758;8.888;2023-07-29T11:08:25;25.60;97.80
7708;DHT22;3896;48.758;8.888;2023-07-29T11:11:05;25.70;97.00
7708;DHT22;3896;48.758;8.888;2023-07-29T11:13:33;25.80;96.30
7708;DHT22;3896;48.758;8.888;2023-07-29T11:15:59;25.80;95.80
7708;DHT22;3896;48.758;8.888;2023-07-29T11:18:28;25.90;95.50
7708;DHT22;3896;48.758;8.888;2023-07-29T11:20:54;26.00;95.30
7708;DHT22;3896;48.758;8.888;2023-07-29T11:23:30;26.00;94.40
7708;DHT22;3896;48.758;8.888;2023-07-29T11:25:56;26.10;94.50
7708;DHT22;3896;48.758;8.888;2023-07-29T11:28:22;26.20;94.30
7708;DHT22;3896;48.758;8.888;2023-07-29T11:30:49;26.30;93.90
7708;DHT22;3896;48.758;8.888;2023-07-29T11:33:18;26.40;93.60
7708;DHT22;3896;48.758;8.888;2023-07-29T11:35:44;26.50;93.30
7708;DHT22;3896;48.758;8.888;2023-07-29T11:38:18;26.60;92.50
7708;DHT22;3896;48.758;8.888;2023-07-29T11:40:54;26.70;91.20
7708;DHT22;3896;48.758;8.888;2023-07-29T11:43:19;26.90;91.30
7708;DHT22;3896;48.758;8.888;2023-07-29T11:45:45;27.00;90.60
7708;DHT22;3896;48.758;8.888;2023-07-29T11:48:10;27.00;90.30
7708;DHT22;3896;48.758;8.888;2023-07-29T11:50:36;27.10;89.80
7708;DHT22;3896;48.758;8.888;2023-07-29T11:53:03;27.30;88.60
7708;DHT22;3896;48.758;8.888;2023-07-29T11:55:28;27.40;88.20
7708;DHT22;3896;48.758;8.888;2023-07-29T11:57:54;27.50;87.00
7708;DHT22;3896;48.758;8.888;2023-07-29T12:00:20;27.60;85.60
7708;DHT22;3896;48.758;8.888;2023-07-29T12:02:47;27.70;83.00
7708;DHT22;3896;48.758;8.888;2023-07-29T12:05:14;27.90;82.00
7708;DHT22;3896;48.758;8.888;2023-07-29T12:07:42;28.00;80.30
7708;DHT22;3896;48.758;8.888;2023-07-29T12:10:09;28.10;79.80
7708;DHT22;3896;48.758;8.888;2023-07-29T12:12:45;28.20;78.50
7708;DHT22;3896;48.758;8.888;2023-07-29T12:15:11;28.40;77.50
7708;DHT22;3896;48.758;8.888;2023-07-29T12:17:41;28.60;76.90
7708;DHT22;3896;48.758;8.888;2023-07-29T12:20:09;28.70;76.20
7708;DHT22;3896;48.758;8.888;2023-07-29T12:22:35;28.80;73.60
7708;DHT22;3896;48.758;8.888;2023-07-29T12:25:03;29.00;70.90
7708;DHT22;3896;48.758;8.888;2023-07-29T12:27:30;29.00;70.00
7708;DHT22;3896;48.758;8.888;2023-07-29T12:30:00;29.20;69.20
7708;DHT22;3896;48.758;8.888;2023-07-29T12:32:29;29.30;68.50
7708;DHT22;3896;48.758;8.888;2023-07-29T12:34:54;29.50;67.80
7708;DHT22;3896;48.758;8.888;2023-07-29T12:37:20;29.50;65.60
7708;DHT22;3896;48.758;8.888;2023-07-29T12:39:55;29.60;64.90
7708;DHT22;3896;48.758;8.888;2023-07-29T12:42:21;29.80;65.00
7708;DHT22;3896;48.758;8.888;2023-07-29T12:44:46;29.90;65.20
7708;DHT22;3896;48.758;8.888;2023-07-29T12:47:12;30.00;65.30
7708;DHT22;3896;48.758;8.888;2023-07-29T12:49:39;30.20;63.50
7708;DHT22;3896;48.758;8.888;2023-07-29T12:52:04;30.30;63.40
7708;DHT22;3896;48.758;8.888;2023-07-29T12:54:30;30.50;62.70
7708;DHT22;3896;48.758;8.888;2023-07-29T12:56:56;30.70;61.20
7708;DHT22;3896;48.758;8.888;2023-07-29T12:59:21;30.80;59.70
7708;DHT22;3896;48.758;8.888;2023-07-29T13:01:47;30.90;59.10
7708;DHT22;3896;48.758;8.888;2023-07-29T13:04:13;30.90;58.50
7708;DHT22;3896;48.758;8.888;2023-07-29T13:06:39;31.00;58.40
7708;DHT22;3896;48.758;8.888;2023-07-29T13:09:04;31.00;58.40
7708;DHT22;3896;48.758;8.888;2023-07-29T13:11:31;31.10;58.20
7708;DHT22;3896;48.758;8.888;2023-07-29T13:13:58;31.20;57.70
7708;DHT22;3896;48.758;8.888;2023-07-29T13:16:23;31.20;56.80
7708;DHT22;3896;48.758;8.888;2023-07-29T13:18:50;31.30;56.20
7708;DHT22;3896;48.758;8.888;2023-07-29T13:21:15;31.40;55.60
7708;DHT22;3896;48.758;8.888;2023-07-29T13:23:41;31.40;55.70
7708;DHT22;3896;48.758;8.888;2023-07-29T13:26:06;31.50;55.70
7708;DHT22;3896;48.758;8.888;2023-07-29T13:28:32;31.50;55.30
7708;DHT22;3896;48.758;8.888;2023-07-29T13:30:57;31.50;55.40
7708;DHT22;3896;48.758;8.888;2023-07-29T13:33:23;31.40;55.20
7708;DHT22;3896;48.758;8.888;2023-07-29T13:35:49;31.40;54.80
7708;DHT22;3896;48.758;8.888;2023-07-29T13:38:14;31.30;54.40
7708;DHT22;3896;48.758;8.888;2023-07-29T13:40:40;31.20;54.30
7708;DHT22;3896;48.758;8.888;2023-07-29T13:43:05;31.10;54.60
7708;DHT22;3896;48.758;8.888;2023-07-29T13:45:31;31.00;54.90
7708;DHT22;3896;48.758;8.888;2023-07-29T13:47:57;30.90;55.40
7708;DHT22;3896;48.758;8.888;2023-07-29T13:50:22;30.80;55.60
7708;DHT22;3896;48.758;8.888;2023-07-29T13:52:48;30.70;56.20
7708;DHT22;3896;48.758;8.888;2023-07-29T13:55:13;30.60;56.10
7708;DHT22;3896;48.758;8.888;2023-07-29T13:57:39;30.60;56.40
7708;DHT22;3896;48.758;8.888;2023-07-29T14:00:07;30.60;56.50
7708;DHT22;3896;48.758;8.888;2023-07-29T14:02:33;30.60;56.50
7708;DHT22;3896;48.758;8.888;2023-07-29T14:04:59;30.70;56.70
7708;DHT22;3896;48.758;8.888;2023-07-29T14:07:24;30.70;57.10
7708;DHT22;3896;48.758;8.888;2023-07-29T14:09:50;30.70;56.80
7708;DHT22;3896;48.758;8.888;2023-07-29T14:12:15;30.70;56.90
7708;DHT22;3896;48.758;8.888;2023-07-29T14:14:42;30.70;57.20
7708;DHT22;3896;48.758;8.888;2023-07-29T14:17:08;30.70;56.90
7708;DHT22;3896;48.758;8.888;2023-07-29T14:19:37;30.70;57.30
7708;DHT22;3896;48.758;8.888;2023-07-29T14:22:02;30.60;57.30
7708;DHT22;3896;48.758;8.888;2023-07-29T14:24:28;30.60;57.00
7708;DHT22;3896;48.758;8.888;2023-07-29T14:26:54;30.50;56.90
7708;DHT22;3896;48.758;8.888;2023-07-29T14:29:19;30.50;56.90
7708;DHT22;3896;48.758;8.888;2023-07-29T14:31:45;30.40;56.90
7708;DHT22;3896;48.758;8.888;2023-07-29T14:34:11;30.30;56.80
7708;DHT22;3896;48.758;8.888;2023-07-29T14:36:36;30.20;56.70
7708;DHT22;3896;48.758;8.888;2023-07-29T14:39:02;30.10;56.90
7708;DHT22;3896;48.758;8.888;2023-07-29T14:41:28;30.00;56.90
7708;DHT22;3896;48.758;8.888;2023-07-29T14:43:53;29.90;57.20
7708;DHT22;3896;48.758;8.888;2023-07-29T14:46:19;29.90;57.50
7708;DHT22;3896;48.758;8.888;2023-07-29T14:48:44;29.80;57.90
7708;DHT22;3896;48.758;8.888;2023-07-29T14:51:12;29.70;57.90
7708;DHT22;3896;48.758;8.888;2023-07-29T14:53:38;29.70;58.20
7708;DHT22;3896;48.758;8.888;2023-07-29T14:56:03;29.60;58.80
7708;DHT22;3896;48.758;8.888;2023-07-29T14:58:29;29.50;58.70
7708;DHT22;3896;48.758;8.888;2023-07-29T15:00:55;29.40;59.20
7708;DHT22;3896;48.758;8.888;2023-07-29T15:03:21;29.40;59.80
7708;DHT22;3896;48.758;8.888;2023-07-29T15:05:46;29.40;59.80
7708;DHT22;3896;48.758;8.888;2023-07-29T15:08:12;29.40;60.00
7708;DHT22;3896;48.758;8.888;2023-07-29T15:10:37;29.40;60.40
7708;DHT22;3896;48.758;8.888;2023-07-29T15:13:04;29.30;60.10
7708;DHT22;3896;48.758;8.888;2023-07-29T15:15:30;29.40;60.00
7708;DHT22;3896;48.758;8.888;2023-07-29T15:17:55;29.40;59.90
7708;DHT22;3896;48.758;8.888;2023-07-29T15:20:22;29.40;60.10
7708;DHT22;3896;48.758;8.888;2023-07-29T15:22:47;29.40;60.00
7708;DHT22;3896;48.758;8.888;2023-07-29T15:25:13;29.40;59.80
7708;DHT22;3896;48.758;8.888;2023-07-29T15:27:39;29.40;59.80
7708;DHT22;3896;48.758;8.888;2023-07-29T15:30:06;29.40;59.40
7708;DHT22;3896;48.758;8.888;2023-07-29T15:32:32;29.40;59.40
7708;DHT22;3896;48.758;8.888;2023-07-29T15:34:58;29.40;60.20
7708;DHT22;3896;48.758;8.888;2023-07-29T15:37:25;29.40;59.80
7708;DHT22;3896;48.758;8.888;2023-07-29T15:39:51;29.40;59.50
7708;DHT22;3896;48.758;8.888;2023-07-29T15:42:17;29.40;58.90
7708;DHT22;3896;48.758;8.888;2023-07-29T15:44:42;29.40;58.50
7708;DHT22;3896;48.758;8.888;2023-07-29T15:47:08;29.40;57.90
7708;DHT22;3896;48.758;8.888;2023-07-29T15:49:34;29.40;57.30
7708;DHT22;3896;48.758;8.888;2023-07-29T15:52:01;29.50;56.80
7708;DHT22;3896;48.758;8.888;2023-07-29T15:54:27;29.50;56.80
7708;DHT22;3896;48.758;8.888;2023-07-29T15:56:52;29.50;56.60
7708;DHT22;3896;48.758;8.888;2023-07-29T15:59:18;29.50;56.30
7708;DHT22;3896;48.758;8.888;2023-07-29T16:01:43;29.50;56.00